METAR Data
IDs: Format: Raw Decoded Include TAF

Data at: 0145 UTC 01 Mar 2021

KOVL 010135Z AUTO 24006KT 10SM CLR M10/M12 A3006 RMK AO2